createdAt,value
2022-09-26T00:00:28.038Z,7.82
2022-09-26T00:01:28.070Z,7.83
2022-09-26T00:02:27.985Z,7.82
2022-09-26T00:03:27.970Z,7.79
2022-09-26T00:04:32.377Z,7.75
2022-09-26T00:05:28.989Z,7.72
2022-09-26T00:06:27.932Z,7.69
2022-09-26T00:07:27.930Z,7.63
2022-09-26T00:08:27.907Z,7.66
2022-09-26T00:09:27.889Z,7.67
2022-09-26T00:10:27.907Z,7.67
2022-09-26T00:11:27.889Z,7.72
2022-09-26T00:12:27.855Z,7.76
2022-09-26T00:13:27.849Z,7.80
2022-09-26T00:14:27.845Z,7.83
2022-09-26T00:15:27.886Z,7.82
2022-09-26T00:16:27.871Z,7.85
2022-09-26T00:17:27.830Z,7.90
2022-09-26T00:18:27.794Z,7.90
2022-09-26T00:19:27.782Z,7.93
2022-09-26T00:20:27.821Z,7.97
2022-09-26T00:21:27.767Z,7.98
2022-09-26T00:22:27.744Z,8.01
2022-09-26T00:23:27.751Z,8.05
2022-09-26T00:24:27.733Z,8.05
2022-09-26T00:25:27.764Z,8.05
2022-09-26T00:26:27.724Z,8.09
2022-09-26T00:27:27.688Z,8.12
2022-09-26T00:28:27.683Z,8.08
2022-09-26T00:29:27.681Z,8.09
2022-09-26T00:30:27.748Z,8.10
2022-09-26T00:31:27.661Z,8.12
2022-09-26T00:32:27.632Z,8.13
2022-09-26T00:33:27.621Z,8.13
2022-09-26T00:34:27.655Z,8.18
2022-09-26T00:35:27.651Z,8.24
2022-09-26T00:36:37.429Z,8.34
2022-09-26T00:37:28.618Z,8.38
2022-09-26T00:38:27.567Z,8.41
2022-09-26T00:39:27.548Z,8.44
2022-09-26T00:40:27.619Z,8.46
2022-09-26T00:41:27.538Z,8.48
2022-09-26T00:42:27.525Z,8.51
2022-09-26T00:43:27.515Z,8.52
2022-09-26T00:44:27.523Z,8.53
2022-09-26T00:45:27.536Z,8.55
2022-09-26T00:46:27.531Z,8.55
2022-09-26T00:47:27.467Z,8.64
2022-09-26T00:48:27.462Z,8.70
2022-09-26T00:49:27.455Z,8.71
2022-09-26T00:50:27.479Z,8.67
2022-09-26T00:51:27.421Z,8.66
2022-09-26T00:52:27.417Z,8.60
2022-09-26T00:53:27.406Z,8.56
2022-09-26T00:54:27.393Z,8.56
2022-09-26T00:55:27.413Z,8.55
2022-09-26T00:56:27.371Z,8.53
2022-09-26T00:57:27.356Z,8.49
2022-09-26T00:58:27.349Z,8.49
2022-09-26T00:59:27.340Z,8.51
2022-09-26T01:00:27.385Z,8.52
2022-09-26T01:01:27.401Z,8.48
2022-09-26T01:02:27.354Z,8.49
2022-09-26T01:03:27.286Z,8.45
2022-09-26T01:04:27.267Z,8.42
2022-09-26T01:05:27.317Z,8.41
2022-09-26T01:06:27.250Z,8.38
2022-09-26T01:07:27.248Z,8.41
2022-09-26T01:08:27.221Z,8.42
2022-09-26T01:09:27.213Z,8.44
2022-09-26T01:10:27.230Z,8.44
2022-09-26T01:11:27.183Z,8.45
2022-09-26T01:12:27.172Z,8.45
2022-09-26T01:13:27.171Z,8.51
2022-09-26T01:14:27.181Z,8.56
2022-09-26T01:15:27.229Z,8.61
2022-09-26T01:16:27.229Z,8.60
2022-09-26T01:17:27.222Z,8.61
2022-09-26T01:18:27.106Z,8.61
2022-09-26T01:19:27.101Z,8.64
2022-09-26T01:20:27.119Z,8.64
2022-09-26T01:21:27.070Z,8.63
2022-09-26T01:22:27.062Z,8.63
2022-09-26T01:23:27.055Z,8.66
2022-09-26T01:24:27.036Z,8.69
2022-09-26T01:25:27.060Z,8.69
2022-09-26T01:26:27.010Z,8.66
2022-09-26T01:27:27.004Z,8.66
2022-09-26T01:28:26.996Z,8.66
2022-09-26T01:29:26.999Z,8.64
2022-09-26T01:30:27.031Z,8.63
2022-09-26T01:31:26.993Z,8.61
2022-09-26T01:32:26.943Z,8.58
2022-09-26T01:33:26.941Z,8.58
2022-09-26T01:34:26.921Z,8.58
2022-09-26T01:35:26.952Z,8.55
2022-09-26T01:36:26.899Z,8.53
2022-09-26T01:37:26.896Z,8.51
2022-09-26T01:38:26.885Z,8.45
2022-09-26T01:39:26.872Z,8.41
2022-09-26T01:40:26.928Z,8.36
2022-09-26T01:41:26.848Z,8.33
2022-09-26T01:42:26.834Z,8.28
2022-09-26T01:43:26.815Z,8.18
2022-09-26T01:44:26.799Z,8.15
2022-09-26T01:45:26.826Z,8.15
2022-09-26T01:46:26.924Z,8.13
2022-09-26T01:47:26.777Z,8.13
2022-09-26T01:48:26.756Z,8.15
2022-09-26T01:49:26.765Z,8.16
2022-09-26T01:50:26.781Z,8.18
2022-09-26T01:51:26.734Z,8.16
2022-09-26T01:52:26.714Z,8.09
2022-09-26T01:53:26.712Z,8.01
2022-09-26T01:54:26.691Z,7.97
2022-09-26T01:55:26.726Z,7.95
2022-09-26T01:56:26.682Z,7.94
2022-09-26T01:57:26.667Z,7.97
2022-09-26T01:58:26.641Z,7.95
2022-09-26T01:59:26.636Z,7.97
2022-09-26T02:00:26.674Z,7.95
2022-09-26T02:01:26.694Z,7.94
2022-09-26T02:02:26.626Z,7.91
2022-09-26T02:03:26.599Z,7.91
2022-09-26T02:04:26.587Z,7.91
2022-09-26T02:05:26.606Z,7.91
2022-09-26T02:06:26.551Z,7.93
2022-09-26T02:07:26.551Z,7.95
2022-09-26T02:08:26.539Z,8.00
2022-09-26T02:09:26.534Z,8.00
2022-09-26T02:10:26.553Z,8.01
2022-09-26T02:11:26.503Z,8.00
2022-09-26T02:12:26.484Z,8.00
2022-09-26T02:13:26.475Z,8.05
2022-09-26T02:14:26.470Z,8.05
2022-09-26T02:15:26.484Z,8.03
2022-09-26T02:16:26.472Z,8.06
2022-09-26T02:17:26.428Z,8.13
2022-09-26T02:18:26.407Z,8.23
2022-09-26T02:19:26.417Z,8.31
2022-09-26T02:20:26.434Z,8.42
2022-09-26T02:21:26.389Z,8.52
2022-09-26T02:22:26.366Z,8.58
2022-09-26T02:23:26.357Z,8.64
2022-09-26T02:24:26.348Z,8.71
2022-09-26T02:25:26.388Z,8.79
2022-09-26T02:26:26.330Z,8.82
2022-09-26T02:27:26.321Z,8.85
2022-09-26T02:28:26.303Z,8.89
2022-09-26T02:29:26.286Z,8.91
2022-09-26T02:30:26.317Z,8.94
2022-09-26T02:31:26.326Z,8.99
2022-09-26T02:32:26.257Z,9.02
2022-09-26T02:33:26.256Z,9.08
2022-09-26T02:34:26.237Z,9.11
2022-09-26T02:35:26.264Z,9.16
2022-09-26T02:36:26.227Z,9.18
2022-09-26T02:37:26.205Z,9.19
2022-09-26T02:38:26.191Z,9.22
2022-09-26T02:39:26.192Z,9.25
2022-09-26T02:40:26.286Z,9.26
2022-09-26T02:41:26.177Z,9.31
2022-09-26T02:42:26.158Z,9.32
2022-09-26T02:43:26.140Z,9.34
2022-09-26T02:44:26.132Z,9.36
2022-09-26T02:45:26.224Z,9.39
2022-09-26T02:46:26.129Z,9.43
2022-09-26T02:47:26.104Z,9.46
2022-09-26T02:48:26.082Z,9.46
2022-09-26T02:49:26.069Z,9.50
2022-09-26T02:50:26.081Z,9.50
2022-09-26T02:51:26.053Z,9.54
2022-09-26T02:52:26.028Z,9.55
2022-09-26T02:53:26.031Z,9.56
2022-09-26T02:54:26.029Z,9.58
2022-09-26T02:55:26.049Z,9.59
2022-09-26T02:56:25.986Z,9.61
2022-09-26T02:57:25.992Z,9.61
2022-09-26T02:58:25.966Z,9.62
2022-09-26T02:59:25.960Z,9.65
2022-09-26T03:00:25.991Z,9.66
2022-09-26T03:01:25.986Z,9.68
2022-09-26T03:02:25.929Z,9.73
2022-09-26T03:03:25.957Z,9.77
2022-09-26T03:04:25.946Z,9.82
2022-09-26T03:05:25.925Z,9.83
2022-09-26T03:06:25.879Z,9.87
2022-09-26T03:07:25.866Z,9.87
2022-09-26T03:08:25.858Z,9.91
2022-09-26T03:09:25.833Z,9.94
2022-09-26T03:10:25.860Z,9.94
2022-09-26T03:11:25.824Z,9.98
2022-09-26T03:12:25.803Z,10.05
2022-09-26T03:13:25.796Z,10.15
2022-09-26T03:14:25.794Z,10.20
2022-09-26T03:15:25.802Z,10.30
2022-09-26T03:16:25.820Z,10.37
2022-09-26T03:17:25.744Z,10.40
2022-09-26T03:18:25.732Z,10.48
2022-09-26T03:19:25.738Z,10.53
2022-09-26T03:20:25.748Z,10.56
2022-09-26T03:21:25.694Z,10.59
2022-09-26T03:22:25.678Z,10.64
2022-09-26T03:23:25.684Z,10.68
2022-09-26T03:24:25.659Z,10.69
2022-09-26T03:25:25.696Z,10.69
2022-09-26T03:26:25.647Z,10.69
2022-09-26T03:27:25.635Z,10.69
2022-09-26T03:28:25.623Z,10.71
2022-09-26T03:29:25.621Z,10.72
2022-09-26T03:30:25.649Z,10.75
2022-09-26T03:31:25.697Z,10.76
2022-09-26T03:32:25.582Z,10.78
2022-09-26T03:33:25.566Z,10.81
2022-09-26T03:34:25.565Z,10.84
2022-09-26T03:35:25.589Z,10.84
2022-09-26T03:36:25.527Z,10.86
2022-09-26T03:37:25.527Z,10.87
2022-09-26T03:38:25.508Z,10.87
2022-09-26T03:39:25.515Z,10.87
2022-09-26T03:40:25.587Z,10.89
2022-09-26T03:41:25.488Z,10.87
2022-09-26T03:42:25.474Z,10.86
2022-09-26T03:43:25.472Z,10.87
2022-09-26T03:44:25.452Z,10.87
2022-09-26T03:45:25.535Z,10.86
2022-09-26T03:46:25.432Z,10.87
2022-09-26T03:47:25.405Z,10.89
2022-09-26T03:48:25.410Z,10.90
2022-09-26T03:49:25.379Z,10.90
2022-09-26T03:50:25.418Z,10.92
2022-09-26T03:51:25.366Z,10.94
2022-09-26T03:52:25.380Z,10.94
2022-09-26T03:53:25.355Z,10.94
2022-09-26T03:54:25.336Z,10.96
2022-09-26T03:55:25.347Z,10.99
2022-09-26T03:56:25.314Z,10.97
2022-09-26T03:57:25.286Z,10.97
2022-09-26T03:58:25.278Z,10.96
2022-09-26T03:59:25.289Z,10.96
2022-09-26T04:00:25.307Z,10.97
2022-09-26T04:01:25.341Z,10.94
2022-09-26T04:02:25.349Z,10.93
2022-09-26T04:03:25.242Z,10.93
2022-09-26T04:04:25.232Z,10.90
2022-09-26T04:05:25.236Z,10.90
2022-09-26T04:06:25.197Z,10.90
2022-09-26T04:07:25.183Z,10.93
2022-09-26T04:08:25.182Z,10.92
2022-09-26T04:09:25.959Z,10.93
2022-09-26T04:10:25.199Z,10.94
2022-09-26T04:11:25.139Z,10.96
2022-09-26T04:12:25.130Z,10.96
2022-09-26T04:13:50.003Z,10.96
2022-09-26T04:14:26.106Z,10.99
2022-09-26T04:15:25.137Z,10.99
2022-09-26T04:16:25.160Z,10.96
2022-09-26T04:17:25.083Z,10.96
2022-09-26T04:18:25.080Z,10.97
2022-09-26T04:19:25.051Z,10.97
2022-09-26T04:20:25.040Z,10.99
2022-09-26T04:21:25.059Z,11.00
2022-09-26T04:22:25.027Z,11.02
2022-09-26T04:23:25.000Z,11.05
2022-09-26T04:24:25.021Z,11.07
2022-09-26T04:25:24.981Z,11.07
2022-09-26T04:26:25.017Z,11.07
2022-09-26T04:27:24.949Z,11.07
2022-09-26T04:28:24.946Z,11.07
2022-09-26T04:29:24.923Z,11.08
2022-09-26T04:30:24.953Z,11.07
2022-09-26T04:31:24.962Z,11.07
2022-09-26T04:32:24.925Z,11.05
2022-09-26T04:33:24.894Z,11.05
2022-09-26T04:34:27.208Z,11.05
2022-09-26T04:35:24.906Z,11.04
2022-09-26T04:36:24.864Z,11.05
2022-09-26T04:37:24.846Z,11.04
2022-09-26T04:38:24.842Z,11.07
2022-09-26T04:39:24.815Z,11.08
2022-09-26T04:40:24.908Z,11.08
2022-09-26T04:41:24.817Z,11.07
2022-09-26T04:42:24.793Z,11.07
2022-09-26T04:43:24.767Z,11.10
2022-09-26T04:44:24.777Z,11.10
2022-09-26T04:45:24.828Z,11.10
2022-09-26T04:46:29.720Z,11.10
2022-09-26T04:47:25.730Z,11.08
2022-09-26T04:48:24.711Z,11.07
2022-09-26T04:49:24.700Z,11.04
2022-09-26T04:50:24.731Z,11.02
2022-09-26T04:51:24.682Z,11.04
2022-09-26T04:52:24.671Z,11.02
2022-09-26T04:53:24.673Z,11.02
2022-09-26T04:54:24.647Z,11.02
2022-09-26T04:55:24.670Z,11.04
2022-09-26T04:56:24.631Z,11.02
2022-09-26T04:57:24.606Z,11.02
2022-09-26T04:58:24.599Z,11.00
2022-09-26T04:59:24.592Z,11.00
2022-09-26T05:00:24.622Z,10.99
2022-09-26T05:01:24.664Z,10.97
2022-09-26T05:02:24.631Z,10.99
2022-09-26T05:03:24.534Z,10.97
2022-09-26T05:04:27.603Z,10.97
2022-09-26T05:05:24.572Z,10.97
2022-09-26T05:06:24.527Z,10.97
2022-09-26T05:07:24.514Z,10.96
2022-09-26T05:08:24.487Z,10.93
2022-09-26T05:09:24.472Z,10.96
2022-09-26T05:10:24.506Z,10.97
2022-09-26T05:11:24.462Z,10.99
2022-09-26T05:12:24.440Z,11.02
2022-09-26T05:13:24.442Z,11.00
2022-09-26T05:14:24.426Z,11.00
2022-09-26T05:15:24.449Z,11.00
2022-09-26T05:16:24.424Z,11.02
2022-09-26T05:17:24.395Z,11.02
2022-09-26T05:18:24.392Z,11.04
2022-09-26T05:19:24.368Z,11.04
2022-09-26T05:20:24.392Z,11.07
2022-09-26T05:21:24.333Z,11.08
2022-09-26T05:22:24.336Z,11.05
2022-09-26T05:23:24.317Z,11.04
2022-09-26T05:24:24.312Z,11.04
2022-09-26T05:25:24.326Z,11.05
2022-09-26T05:26:24.291Z,11.05
2022-09-26T05:27:24.267Z,11.04
2022-09-26T05:28:24.281Z,11.05
2022-09-26T05:29:24.256Z,11.07
2022-09-26T05:30:24.274Z,11.07
2022-09-26T05:31:24.277Z,11.04
2022-09-26T05:32:24.228Z,11.05
2022-09-26T05:33:24.204Z,11.07
2022-09-26T05:34:24.202Z,11.07
2022-09-26T05:35:24.210Z,11.07
2022-09-26T05:36:24.166Z,11.07
2022-09-26T05:37:24.146Z,11.07
2022-09-26T05:38:24.146Z,11.07
2022-09-26T05:39:24.139Z,11.07
2022-09-26T05:40:24.284Z,11.07
2022-09-26T05:41:24.119Z,11.07
2022-09-26T05:42:24.146Z,11.07
2022-09-26T05:43:24.098Z,11.05
2022-09-26T05:44:24.086Z,11.07
2022-09-26T05:45:24.104Z,11.07
2022-09-26T05:46:24.138Z,11.07
2022-09-26T05:47:24.069Z,11.08
2022-09-26T05:48:24.039Z,11.07
2022-09-26T05:49:24.029Z,11.08
2022-09-26T05:50:24.055Z,11.08
2022-09-26T05:51:23.997Z,11.10
2022-09-26T05:52:23.987Z,11.11
2022-09-26T05:53:23.973Z,11.10
2022-09-26T05:54:23.960Z,11.11
2022-09-26T05:55:23.954Z,11.11
2022-09-26T05:56:23.981Z,11.11
2022-09-26T05:57:23.942Z,11.14
2022-09-26T05:58:23.920Z,11.14
2022-09-26T05:59:23.913Z,11.14
2022-09-26T06:00:23.901Z,11.18
2022-09-26T06:01:23.971Z,11.18
2022-09-26T06:02:23.913Z,11.19
2022-09-26T06:03:23.858Z,11.19
2022-09-26T06:04:23.861Z,11.22
2022-09-26T06:05:23.840Z,11.25
2022-09-26T06:06:23.872Z,11.23
2022-09-26T06:07:23.816Z,11.27
2022-09-26T06:08:23.820Z,11.27
2022-09-26T06:09:23.792Z,11.29
2022-09-26T06:10:23.818Z,11.29
2022-09-26T06:11:23.792Z,11.27
2022-09-26T06:12:23.778Z,11.27
2022-09-26T06:13:23.759Z,11.29
2022-09-26T06:14:23.748Z,11.30
2022-09-26T06:15:23.768Z,11.30
2022-09-26T06:16:23.774Z,11.30
2022-09-26T06:17:23.705Z,11.30
2022-09-26T06:18:23.712Z,11.30
2022-09-26T06:19:23.798Z,11.29
2022-09-26T06:20:23.705Z,11.26
2022-09-26T06:21:23.674Z,11.26
2022-09-26T06:22:23.654Z,11.25
2022-09-26T06:23:23.656Z,11.26
2022-09-26T06:24:23.631Z,11.25
2022-09-26T06:25:23.686Z,11.25
2022-09-26T06:26:23.660Z,11.25
2022-09-26T06:27:23.605Z,11.25
2022-09-26T06:28:23.581Z,11.29
2022-09-26T06:29:23.580Z,11.29
2022-09-26T06:30:23.618Z,11.32
2022-09-26T06:31:23.603Z,11.36
2022-09-26T06:32:23.556Z,11.40
2022-09-26T06:33:23.542Z,11.43
2022-09-26T06:34:23.537Z,11.44
2022-09-26T06:35:23.552Z,11.47
2022-09-26T06:36:23.521Z,11.51
2022-09-26T06:37:23.481Z,11.54
2022-09-26T06:38:23.483Z,11.54
2022-09-26T06:39:23.449Z,11.57
2022-09-26T06:40:23.506Z,11.60
2022-09-26T06:41:23.429Z,11.63
2022-09-26T06:42:23.422Z,11.68
2022-09-26T06:43:23.453Z,11.69
2022-09-26T06:44:23.420Z,11.69
2022-09-26T06:45:23.433Z,11.73
2022-09-26T06:46:23.459Z,11.80
2022-09-26T06:47:23.386Z,11.78
2022-09-26T06:48:24.648Z,11.77
2022-09-26T06:49:23.352Z,11.78
2022-09-26T06:50:23.390Z,11.75
2022-09-26T06:51:23.327Z,11.73
2022-09-26T06:52:23.315Z,11.75
2022-09-26T06:53:23.311Z,11.81
2022-09-26T06:54:23.290Z,11.88
2022-09-26T06:55:23.320Z,11.94
2022-09-26T06:56:23.267Z,11.91
2022-09-26T06:57:23.267Z,11.95
2022-09-26T06:58:23.251Z,12.03
2022-09-26T06:59:23.224Z,12.10
2022-09-26T07:00:23.295Z,12.20
2022-09-26T07:01:23.435Z,12.20
2022-09-26T07:02:23.302Z,12.24
2022-09-26T07:03:23.194Z,12.21
2022-09-26T07:04:23.190Z,12.20
2022-09-26T07:05:23.214Z,12.31
2022-09-26T07:06:23.150Z,12.29
2022-09-26T07:07:23.134Z,12.31
2022-09-26T07:08:37.429Z,12.27
2022-09-26T07:09:24.134Z,12.28
2022-09-26T07:10:23.182Z,12.28
2022-09-26T07:12:02.690Z,12.36
2022-09-26T07:12:24.091Z,12.43
2022-09-26T07:13:23.070Z,12.50
2022-09-26T07:14:23.042Z,12.57
2022-09-26T07:15:23.063Z,12.65
2022-09-26T07:16:23.165Z,12.50
2022-09-26T07:17:23.026Z,12.46
2022-09-26T07:18:23.037Z,12.42
2022-09-26T07:19:23.012Z,12.42
2022-09-26T07:20:23.034Z,12.39
2022-09-26T07:21:22.987Z,12.45
2022-09-26T07:22:22.981Z,12.53
2022-09-26T07:23:22.968Z,12.60
2022-09-26T07:24:22.954Z,12.68
2022-09-26T07:25:22.978Z,12.72
2022-09-26T07:26:22.937Z,12.62
2022-09-26T07:27:22.933Z,12.60
2022-09-26T07:28:22.911Z,12.65
2022-09-26T07:29:22.904Z,12.58
2022-09-26T07:30:22.909Z,12.58
2022-09-26T07:31:22.886Z,12.60
2022-09-26T07:32:22.852Z,12.64
2022-09-26T07:33:22.857Z,12.50
2022-09-26T07:34:22.851Z,12.55
2022-09-26T07:35:22.884Z,12.53
2022-09-26T07:36:22.827Z,12.60
2022-09-26T07:37:22.811Z,12.70
2022-09-26T07:38:22.801Z,12.76
2022-09-26T07:39:22.793Z,12.75
2022-09-26T07:40:22.874Z,12.82
2022-09-26T07:41:22.776Z,12.80
2022-09-26T07:42:22.747Z,12.85
2022-09-26T07:43:42.486Z,12.91
2022-09-26T07:45:28.719Z,12.91
2022-09-26T07:45:29.487Z,12.90
2022-09-26T07:46:23.724Z,12.91
2022-09-26T07:47:22.686Z,12.86
2022-09-26T07:48:22.699Z,12.98
2022-09-26T07:49:22.666Z,13.08
2022-09-26T07:50:22.838Z,13.04
2022-09-26T07:51:22.659Z,12.95
2022-09-26T07:52:22.678Z,12.97
2022-09-26T07:53:22.625Z,13.09
2022-09-26T07:54:22.609Z,13.11
2022-09-26T07:55:22.630Z,13.08
2022-09-26T07:56:22.585Z,13.01
2022-09-26T07:57:22.587Z,13.03
2022-09-26T07:58:22.590Z,13.05
2022-09-26T07:59:22.562Z,13.05
2022-09-26T08:00:22.647Z,13.00
2022-09-26T08:01:22.618Z,13.01
2022-09-26T08:02:22.745Z,13.03
2022-09-26T08:03:22.672Z,12.95
2022-09-26T08:04:22.506Z,13.03
2022-09-26T08:05:22.539Z,13.05
2022-09-26T08:06:22.498Z,13.03
2022-09-26T08:07:22.476Z,13.00
2022-09-26T08:08:22.452Z,13.05
2022-09-26T08:09:22.455Z,13.13
2022-09-26T08:10:22.545Z,14.07
2022-09-26T08:11:22.471Z,14.84
2022-09-26T08:12:22.408Z,15.18
2022-09-26T08:13:22.415Z,15.67
2022-09-26T08:14:22.366Z,16.28
2022-09-26T08:15:22.406Z,16.42
2022-09-26T08:16:22.398Z,16.66
2022-09-26T08:17:22.371Z,16.89
2022-09-26T08:18:22.336Z,17.19
2022-09-26T08:19:22.330Z,17.54
2022-09-26T08:20:22.349Z,17.65
2022-09-26T08:21:22.323Z,17.82
2022-09-26T08:22:22.288Z,18.11
2022-09-26T08:23:22.296Z,18.40
2022-09-26T08:24:22.275Z,18.49
2022-09-26T08:25:22.291Z,18.43
2022-09-26T08:26:22.249Z,18.56
2022-09-26T08:27:22.246Z,18.55
2022-09-26T08:28:22.233Z,18.20
2022-09-26T08:29:22.223Z,17.97
2022-09-26T08:30:22.240Z,18.10
2022-09-26T08:31:22.246Z,18.10
2022-09-26T08:32:22.186Z,18.31
2022-09-26T08:33:22.182Z,18.56
2022-09-26T08:34:25.258Z,18.37
2022-09-26T08:35:22.204Z,18.60
2022-09-26T08:36:22.144Z,18.52
2022-09-26T08:37:22.197Z,18.56
2022-09-26T08:38:22.099Z,18.71
2022-09-26T08:39:22.145Z,18.92
2022-09-26T08:40:22.192Z,19.33
2022-09-26T08:41:22.118Z,19.14
2022-09-26T08:42:22.086Z,19.02
2022-09-26T08:43:22.080Z,18.93
2022-09-26T08:44:22.039Z,18.60
2022-09-26T08:45:22.059Z,18.23
2022-09-26T08:46:22.075Z,18.10
2022-09-26T08:47:22.010Z,18.58
2022-09-26T08:48:22.025Z,19.08
2022-09-26T08:49:22.009Z,19.27
2022-09-26T08:50:22.005Z,19.48
2022-09-26T08:51:26.783Z,19.76
2022-09-26T08:52:22.955Z,19.30
2022-09-26T08:53:21.951Z,19.36
2022-09-26T08:54:21.930Z,18.80
2022-09-26T08:55:21.960Z,18.88
2022-09-26T08:56:21.902Z,18.31
2022-09-26T08:57:21.910Z,17.95
2022-09-26T08:58:26.482Z,18.20
2022-09-26T08:59:22.871Z,18.90
2022-09-26T09:00:21.917Z,19.48
2022-09-26T09:01:21.935Z,19.95
2022-09-26T09:02:22.043Z,20.29
2022-09-26T09:03:21.829Z,20.63
2022-09-26T09:04:21.829Z,20.77
2022-09-26T09:05:21.855Z,21.09
2022-09-26T09:06:21.818Z,21.42
2022-09-26T09:07:21.785Z,20.95
2022-09-26T09:08:21.780Z,20.25
2022-09-26T09:09:21.779Z,19.86
2022-09-26T09:10:21.794Z,19.88
2022-09-26T09:11:21.758Z,19.96
2022-09-26T09:12:24.350Z,20.41
2022-09-26T09:13:21.738Z,20.75
2022-09-26T09:14:21.709Z,20.69
2022-09-26T09:15:25.721Z,19.52
2022-09-26T09:16:21.718Z,19.31
2022-09-26T09:17:21.652Z,18.90
2022-09-26T09:18:21.657Z,18.95
2022-09-26T09:19:21.679Z,19.07
2022-09-26T09:20:21.687Z,18.68
2022-09-26T09:21:21.621Z,18.20
2022-09-26T09:22:21.619Z,17.94
2022-09-26T09:23:21.622Z,17.38
2022-09-26T09:24:21.603Z,16.96
2022-09-26T09:25:21.617Z,16.75
2022-09-26T09:28:22.563Z,16.69
2022-09-26T09:29:21.553Z,16.58
2022-09-26T09:30:21.605Z,16.56
2022-09-26T09:31:21.625Z,16.41
2022-09-26T09:32:21.500Z,16.31
2022-09-26T09:33:21.487Z,16.09
2022-09-26T09:34:21.496Z,15.86
2022-09-26T09:35:21.531Z,16.56
2022-09-26T09:36:21.462Z,17.39
2022-09-26T09:37:21.459Z,17.38
2022-09-26T09:38:21.447Z,17.44
2022-09-26T09:39:21.423Z,17.54
2022-09-26T09:40:21.495Z,17.36
2022-09-26T09:41:21.414Z,17.29
2022-09-26T09:42:21.389Z,17.34
2022-09-26T09:43:21.390Z,18.37
2022-09-26T09:44:21.375Z,19.44
2022-09-26T09:45:21.406Z,20.25
2022-09-26T09:46:21.363Z,20.78
2022-09-26T09:47:21.324Z,20.82
2022-09-26T09:48:21.315Z,21.29
2022-09-26T09:49:21.308Z,20.77
2022-09-26T09:50:21.411Z,20.82
2022-09-26T09:51:21.303Z,20.60
2022-09-26T09:52:21.300Z,21.32
2022-09-26T09:53:21.275Z,21.83
2022-09-26T09:54:21.267Z,22.20
2022-09-26T09:55:21.268Z,22.29
2022-09-26T09:56:21.232Z,22.47
2022-09-26T09:57:21.225Z,22.13
2022-09-26T09:58:21.216Z,22.51
2022-09-26T09:59:21.221Z,22.47
2022-09-26T10:00:21.225Z,22.22
2022-09-26T10:01:21.213Z,22.32
2022-09-26T10:02:21.223Z,22.18
2022-09-26T10:03:21.233Z,22.20
2022-09-26T10:04:21.177Z,22.02
2022-09-26T10:05:21.206Z,21.27
2022-09-26T10:06:43.991Z,21.37
2022-09-26T10:07:22.111Z,21.73
2022-09-26T10:08:21.122Z,22.20
2022-09-26T10:09:38.694Z,22.30
2022-09-26T10:10:22.106Z,21.89
2022-09-26T10:11:21.069Z,22.36
2022-09-26T10:12:21.065Z,22.87
2022-09-26T10:13:21.042Z,23.63
2022-09-26T10:14:21.026Z,23.51
2022-09-26T10:15:21.059Z,24.01
2022-09-26T10:16:21.085Z,24.65
2022-09-26T10:17:21.011Z,24.11
2022-09-26T10:18:26.017Z,24.50
2022-09-26T10:19:21.997Z,24.35
2022-09-26T10:20:20.989Z,23.47
2022-09-26T10:21:20.971Z,21.85
2022-09-26T10:22:20.941Z,21.88
2022-09-26T10:23:20.930Z,22.53
2022-09-26T10:24:20.931Z,23.08
2022-09-26T10:25:20.937Z,21.92
2022-09-26T10:26:20.904Z,21.24
2022-09-26T10:27:20.887Z,21.45
2022-09-26T10:28:20.882Z,21.77
2022-09-26T10:29:20.896Z,21.58
2022-09-26T10:30:20.923Z,20.95
2022-09-26T10:31:20.881Z,20.10
2022-09-26T10:32:20.828Z,19.40
2022-09-26T10:33:20.843Z,18.77
2022-09-26T10:34:20.813Z,18.65
2022-09-26T10:35:20.842Z,18.73
2022-09-26T10:36:20.790Z,18.60
2022-09-26T10:37:20.788Z,18.47
2022-09-26T10:38:20.760Z,18.50
2022-09-26T10:39:20.779Z,19.02
2022-09-26T10:40:20.804Z,19.16
2022-09-26T10:41:20.738Z,19.34
2022-09-26T10:42:20.718Z,20.06
2022-09-26T10:43:20.714Z,20.75
2022-09-26T10:44:20.699Z,21.67
2022-09-26T10:45:20.773Z,22.59
2022-09-26T10:46:20.735Z,23.12
2022-09-26T10:47:20.705Z,22.30
2022-09-26T10:48:20.670Z,22.75
2022-09-26T10:49:20.648Z,23.46
2022-09-26T10:50:20.662Z,23.95
2022-09-26T10:51:20.609Z,24.35
2022-09-26T10:52:20.604Z,24.63
2022-09-26T10:53:20.607Z,23.93
2022-09-26T10:54:20.604Z,23.63
2022-09-26T10:55:20.625Z,22.51
2022-09-26T10:56:20.574Z,21.66
2022-09-26T10:57:20.578Z,21.09
2022-09-26T10:58:20.539Z,21.88
2022-09-26T10:59:20.542Z,22.68
2022-09-26T11:00:20.560Z,23.21
2022-09-26T11:01:20.532Z,23.51
2022-09-26T11:02:20.504Z,24.23
2022-09-26T11:03:20.585Z,25.11
2022-09-26T11:04:20.502Z,25.66
2022-09-26T11:05:20.540Z,25.41
2022-09-26T11:06:23.759Z,25.55
2022-09-26T11:07:20.465Z,26.16
2022-09-26T11:08:20.422Z,26.44
2022-09-26T11:09:20.467Z,26.66
2022-09-26T11:10:20.485Z,26.29
2022-09-26T11:11:20.407Z,25.99
2022-09-26T11:12:20.402Z,25.58
2022-09-26T11:13:20.375Z,25.25
2022-09-26T11:14:22.185Z,25.35
2022-09-26T11:15:20.426Z,25.68
2022-09-26T11:16:20.609Z,25.58
2022-09-26T11:17:20.316Z,23.98
2022-09-26T11:18:20.333Z,23.92
2022-09-26T11:19:20.743Z,23.71
2022-09-26T11:20:20.331Z,24.29
2022-09-26T11:21:28.822Z,24.42
2022-09-26T11:22:21.270Z,23.50
2022-09-26T11:23:20.273Z,24.13
2022-09-26T11:24:20.251Z,23.78
2022-09-26T11:25:20.286Z,22.69
2022-09-26T11:26:20.221Z,21.54
2022-09-26T11:27:20.239Z,20.95
2022-09-26T11:28:20.222Z,21.35
2022-09-26T11:29:20.236Z,22.53
2022-09-26T11:30:20.189Z,23.46
2022-09-26T11:31:20.424Z,24.39
2022-09-26T11:32:20.163Z,24.86
2022-09-26T11:33:20.179Z,24.96
2022-09-26T11:34:20.166Z,25.62
2022-09-26T11:35:20.170Z,25.51
2022-09-26T11:36:20.136Z,25.36
2022-09-26T11:37:20.113Z,25.72
2022-09-26T11:38:20.111Z,25.51
2022-09-26T11:39:20.087Z,23.95
2022-09-26T11:40:20.205Z,22.73
2022-09-26T11:41:20.079Z,22.35
2022-09-26T11:42:20.094Z,21.96
2022-09-26T11:43:20.062Z,21.45
2022-09-26T11:44:20.036Z,21.30
2022-09-26T11:45:20.057Z,21.25
2022-09-26T11:46:20.067Z,21.03
2022-09-26T11:47:20.013Z,20.85
2022-09-26T11:48:20.004Z,20.44
2022-09-26T11:49:19.988Z,20.31
2022-09-26T11:50:20.005Z,20.14
2022-09-26T11:51:19.959Z,19.99
2022-09-26T11:52:19.936Z,19.94
2022-09-26T11:53:19.923Z,19.74
2022-09-26T11:54:19.931Z,19.67
2022-09-26T11:55:19.972Z,19.56
2022-09-26T11:56:19.907Z,19.41
2022-09-26T11:57:19.905Z,19.18
2022-09-26T11:58:19.884Z,19.08
2022-09-26T11:59:19.873Z,19.34
2022-09-26T12:00:19.889Z,19.45
2022-09-26T12:01:19.847Z,19.41
2022-09-26T12:02:19.945Z,19.31
2022-09-26T12:03:20.043Z,19.33
2022-09-26T12:04:19.861Z,19.30
2022-09-26T12:05:22.437Z,19.26
2022-09-26T12:06:20.799Z,19.12
2022-09-26T12:07:19.762Z,18.99
2022-09-26T12:08:19.772Z,18.86
2022-09-26T12:09:19.774Z,18.81
2022-09-26T12:10:19.803Z,18.63
2022-09-26T12:11:19.747Z,18.66
2022-09-26T12:12:19.730Z,18.80
2022-09-26T12:13:19.713Z,18.65
2022-09-26T12:14:19.726Z,18.56
2022-09-26T12:15:19.769Z,18.43
2022-09-26T12:16:19.774Z,18.37
2022-09-26T12:17:19.674Z,18.29
2022-09-26T12:18:19.650Z,18.25
2022-09-26T12:19:19.644Z,18.23
2022-09-26T12:20:19.673Z,18.03
2022-09-26T12:21:19.633Z,17.95
2022-09-26T12:22:19.603Z,17.95
2022-09-26T12:23:19.586Z,17.97
2022-09-26T12:24:19.572Z,17.87
2022-09-26T12:25:20.491Z,17.78
2022-09-26T12:26:19.679Z,17.78
2022-09-26T12:27:19.573Z,17.87
2022-09-26T12:28:19.537Z,18.00
2022-09-26T12:29:19.555Z,18.58
2022-09-26T12:30:19.573Z,19.15
2022-09-26T12:31:20.039Z,20.37
2022-09-26T12:32:19.515Z,21.15
2022-09-26T12:33:19.498Z,20.60
2022-09-26T12:34:19.488Z,19.81
2022-09-26T12:35:19.509Z,19.67
2022-09-26T12:36:19.477Z,19.29
2022-09-26T12:37:19.465Z,19.29
2022-09-26T12:38:19.440Z,19.31
2022-09-26T12:39:19.418Z,19.64
2022-09-26T12:40:19.525Z,19.94
2022-09-26T12:41:19.405Z,19.86
2022-09-26T12:42:19.399Z,19.79
2022-09-26T12:43:19.380Z,19.74
2022-09-26T12:44:19.369Z,19.67
2022-09-26T12:45:19.401Z,20.55
2022-09-26T12:46:19.394Z,20.65
2022-09-26T12:47:19.334Z,20.55
2022-09-26T12:48:19.323Z,20.43
2022-09-26T12:49:19.300Z,21.27
2022-09-26T12:50:19.353Z,22.07
2022-09-26T12:51:19.286Z,22.43
2022-09-26T12:52:22.544Z,23.46
2022-09-26T12:53:20.262Z,24.14
2022-09-26T12:54:19.251Z,24.61
2022-09-26T12:55:19.286Z,25.03
2022-09-26T12:56:19.224Z,25.38
2022-09-26T12:57:19.222Z,24.86
2022-09-26T12:58:19.213Z,25.01
2022-09-26T12:59:19.208Z,24.69
2022-09-26T13:00:19.268Z,24.51